sensor_id;sensor_type;location;lat;lon;timestamp;temperature;humidity
78289;DHT22;67539;48.752;12.922;2024-01-11T00:52:59;-4.80;99.90
78289;DHT22;67539;48.752;12.922;2024-01-11T02:00:11;-5.20;99.90
78289;DHT22;67539;48.752;12.922;2024-01-11T02:02:41;-5.20;99.90
78289;DHT22;67539;48.752;12.922;2024-01-11T02:05:13;-5.20;99.90
78289;DHT22;67539;48.752;12.922;2024-01-11T02:07:42;-5.20;99.90
78289;DHT22;67539;48.752;12.922;2024-01-11T02:10:12;-5.20;99.90
78289;DHT22;67539;48.752;12.922;2024-01-11T02:12:41;-5.30;99.90
78289;DHT22;67539;48.752;12.922;2024-01-11T02:15:09;-5.30;99.90
78289;DHT22;67539;48.752;12.922;2024-01-11T02:17:40;-5.30;99.90
78289;DHT22;67539;48.752;12.922;2024-01-11T02:20:11;-5.30;99.90
78289;DHT22;67539;48.752;12.922;2024-01-11T02:22:42;-5.30;99.90
78289;DHT22;67539;48.752;12.922;2024-01-11T02:25:16;-5.20;99.90
78289;DHT22;67539;48.752;12.922;2024-01-11T02:27:46;-5.20;99.90
78289;DHT22;67539;48.752;12.922;2024-01-11T02:30:15;-5.20;99.90
78289;DHT22;67539;48.752;12.922;2024-01-11T02:32:44;-5.20;99.90
78289;DHT22;67539;48.752;12.922;2024-01-11T02:35:15;-5.20;99.90
78289;DHT22;67539;48.752;12.922;2024-01-11T02:37:44;-5.20;99.90
78289;DHT22;67539;48.752;12.922;2024-01-11T02:40:13;-5.20;99.90
78289;DHT22;67539;48.752;12.922;2024-01-11T02:42:44;-5.20;99.90
78289;DHT22;67539;48.752;12.922;2024-01-11T02:45:12;-5.30;99.90
78289;DHT22;67539;48.752;12.922;2024-01-11T02:47:41;-5.30;99.90
78289;DHT22;67539;48.752;12.922;2024-01-11T02:50:10;-5.30;99.90
78289;DHT22;67539;48.752;12.922;2024-01-11T02:52:39;-5.30;99.90
78289;DHT22;67539;48.752;12.922;2024-01-11T02:55:08;-5.30;99.90
78289;DHT22;67539;48.752;12.922;2024-01-11T02:57:37;-5.30;99.90
78289;DHT22;67539;48.752;12.922;2024-01-11T03:00:07;-5.30;99.90
78289;DHT22;67539;48.752;12.922;2024-01-11T03:02:37;-5.40;99.90
78289;DHT22;67539;48.752;12.922;2024-01-11T03:05:06;-5.40;99.90
78289;DHT22;67539;48.752;12.922;2024-01-11T03:07:35;-5.40;99.90
78289;DHT22;67539;48.752;12.922;2024-01-11T03:10:03;-5.40;99.90
78289;DHT22;67539;48.752;12.922;2024-01-11T03:12:32;-5.40;99.90
78289;DHT22;67539;48.752;12.922;2024-01-11T03:15:00;-5.50;99.90
78289;DHT22;67539;48.752;12.922;2024-01-11T03:17:30;-5.50;99.90
78289;DHT22;67539;48.752;12.922;2024-01-11T03:19:59;-5.50;99.90
78289;DHT22;67539;48.752;12.922;2024-01-11T03:22:28;-5.50;99.90
78289;DHT22;67539;48.752;12.922;2024-01-11T03:24:56;-5.50;99.90
78289;DHT22;67539;48.752;12.922;2024-01-11T03:27:24;-5.50;99.90
78289;DHT22;67539;48.752;12.922;2024-01-11T03:29:52;-5.50;99.90
78289;DHT22;67539;48.752;12.922;2024-01-11T03:32:21;-5.50;99.90
78289;DHT22;67539;48.752;12.922;2024-01-11T03:34:51;-5.50;99.90
78289;DHT22;67539;48.752;12.922;2024-01-11T03:37:19;-5.50;99.90
78289;DHT22;67539;48.752;12.922;2024-01-11T03:39:48;-5.50;99.90
78289;DHT22;67539;48.752;12.922;2024-01-11T03:42:16;-5.60;99.90
78289;DHT22;67539;48.752;12.922;2024-01-11T03:44:45;-5.60;99.90
78289;DHT22;67539;48.752;12.922;2024-01-11T03:47:13;-5.60;99.90
78289;DHT22;67539;48.752;12.922;2024-01-11T03:49:42;-5.70;99.90
78289;DHT22;67539;48.752;12.922;2024-01-11T03:52:11;-5.70;99.90
78289;DHT22;67539;48.752;12.922;2024-01-11T03:54:40;-5.70;99.90
78289;DHT22;67539;48.752;12.922;2024-01-11T03:57:08;-5.70;99.90
78289;DHT22;67539;48.752;12.922;2024-01-11T03:59:36;-5.80;99.90
78289;DHT22;67539;48.752;12.922;2024-01-11T04:02:05;-5.80;99.90
78289;DHT22;67539;48.752;12.922;2024-01-11T04:04:34;-5.80;99.90
78289;DHT22;67539;48.752;12.922;2024-01-11T04:07:02;-5.80;99.90
78289;DHT22;67539;48.752;12.922;2024-01-11T04:09:32;-5.80;99.90
78289;DHT22;67539;48.752;12.922;2024-01-11T04:12:00;-5.80;99.90
78289;DHT22;67539;48.752;12.922;2024-01-11T04:14:30;-5.80;99.90
78289;DHT22;67539;48.752;12.922;2024-01-11T04:16:59;-5.90;99.90
78289;DHT22;67539;48.752;12.922;2024-01-11T04:19:27;-5.90;99.90
78289;DHT22;67539;48.752;12.922;2024-01-11T04:21:56;-5.90;99.90
78289;DHT22;67539;48.752;12.922;2024-01-11T04:24:24;-5.90;99.90
78289;DHT22;67539;48.752;12.922;2024-01-11T04:26:54;-5.90;99.90
78289;DHT22;67539;48.752;12.922;2024-01-11T04:29:23;-5.90;99.90
78289;DHT22;67539;48.752;12.922;2024-01-11T04:31:51;-5.90;99.90
78289;DHT22;67539;48.752;12.922;2024-01-11T04:34:20;-5.90;99.90
78289;DHT22;67539;48.752;12.922;2024-01-11T04:36:48;-6.00;99.90
78289;DHT22;67539;48.752;12.922;2024-01-11T04:39:17;-6.00;99.90
78289;DHT22;67539;48.752;12.922;2024-01-11T04:41:45;-6.00;99.90
78289;DHT22;67539;48.752;12.922;2024-01-11T04:44:16;-6.00;99.90
78289;DHT22;67539;48.752;12.922;2024-01-11T04:46:44;-6.00;99.90
78289;DHT22;67539;48.752;12.922;2024-01-11T04:49:13;-6.00;99.90
78289;DHT22;67539;48.752;12.922;2024-01-11T04:51:41;-6.00;99.90
78289;DHT22;67539;48.752;12.922;2024-01-11T04:54:10;-6.00;99.90
78289;DHT22;67539;48.752;12.922;2024-01-11T04:56:38;-6.00;99.90
78289;DHT22;67539;48.752;12.922;2024-01-11T04:59:07;-6.10;99.90
78289;DHT22;67539;48.752;12.922;2024-01-11T05:01:37;-6.10;99.90
78289;DHT22;67539;48.752;12.922;2024-01-11T05:04:06;-6.10;99.90
78289;DHT22;67539;48.752;12.922;2024-01-11T05:06:35;-6.10;99.90
78289;DHT22;67539;48.752;12.922;2024-01-11T05:09:03;-6.20;99.90
78289;DHT22;67539;48.752;12.922;2024-01-11T05:11:32;-6.10;99.90
78289;DHT22;67539;48.752;12.922;2024-01-11T05:14:00;-6.10;99.90
78289;DHT22;67539;48.752;12.922;2024-01-11T05:16:29;-6.10;99.90
78289;DHT22;67539;48.752;12.922;2024-01-11T05:18:59;-6.20;99.90
78289;DHT22;67539;48.752;12.922;2024-01-11T05:21:27;-6.20;99.90
78289;DHT22;67539;48.752;12.922;2024-01-11T05:23:56;-6.20;99.90
78289;DHT22;67539;48.752;12.922;2024-01-11T05:26:25;-6.10;99.90
78289;DHT22;67539;48.752;12.922;2024-01-11T05:28:53;-6.10;99.90
78289;DHT22;67539;48.752;12.922;2024-01-11T05:31:22;-6.00;99.90
78289;DHT22;67539;48.752;12.922;2024-01-11T05:33:50;-6.20;99.90
78289;DHT22;67539;48.752;12.922;2024-01-11T05:36:20;-6.20;99.90
78289;DHT22;67539;48.752;12.922;2024-01-11T05:38:49;-6.20;99.90
78289;DHT22;67539;48.752;12.922;2024-01-11T05:41:18;-6.20;99.90
78289;DHT22;67539;48.752;12.922;2024-01-11T05:43:46;-6.20;99.90
78289;DHT22;67539;48.752;12.922;2024-01-11T05:46:15;-6.20;99.90
78289;DHT22;67539;48.752;12.922;2024-01-11T05:48:43;-6.20;99.90
78289;DHT22;67539;48.752;12.922;2024-01-11T05:51:11;-6.10;99.90
78289;DHT22;67539;48.752;12.922;2024-01-11T05:53:41;-6.10;99.90
78289;DHT22;67539;48.752;12.922;2024-01-11T05:56:10;-6.00;99.90
78289;DHT22;67539;48.752;12.922;2024-01-11T05:58:39;-6.00;99.90
78289;DHT22;67539;48.752;12.922;2024-01-11T06:01:08;-5.90;99.90
78289;DHT22;67539;48.752;12.922;2024-01-11T06:03:36;-5.90;99.90
78289;DHT22;67539;48.752;12.922;2024-01-11T06:06:06;-5.90;99.90
78289;DHT22;67539;48.752;12.922;2024-01-11T06:08:36;-5.80;99.90
78289;DHT22;67539;48.752;12.922;2024-01-11T06:11:06;-5.80;99.90
78289;DHT22;67539;48.752;12.922;2024-01-11T06:13:35;-5.80;99.90
78289;DHT22;67539;48.752;12.922;2024-01-11T06:16:03;-5.80;99.90
78289;DHT22;67539;48.752;12.922;2024-01-11T06:18:32;-5.80;99.90
78289;DHT22;67539;48.752;12.922;2024-01-11T06:21:00;-5.80;99.90
78289;DHT22;67539;48.752;12.922;2024-01-11T06:23:29;-5.80;99.90
78289;DHT22;67539;48.752;12.922;2024-01-11T06:25:57;-5.70;99.90
78289;DHT22;67539;48.752;12.922;2024-01-11T06:28:27;-5.70;99.90
78289;DHT22;67539;48.752;12.922;2024-01-11T06:30:57;-5.70;99.90
78289;DHT22;67539;48.752;12.922;2024-01-11T06:33:25;-5.60;99.90
78289;DHT22;67539;48.752;12.922;2024-01-11T06:35:54;-5.60;99.90
78289;DHT22;67539;48.752;12.922;2024-01-11T06:38:23;-5.60;99.90
78289;DHT22;67539;48.752;12.922;2024-01-11T06:40:51;-5.60;99.90
78289;DHT22;67539;48.752;12.922;2024-01-11T06:43:20;-5.60;99.90
78289;DHT22;67539;48.752;12.922;2024-01-11T06:45:50;-5.60;99.90
78289;DHT22;67539;48.752;12.922;2024-01-11T06:48:20;-5.60;99.90
78289;DHT22;67539;48.752;12.922;2024-01-11T06:50:48;-5.60;99.90
78289;DHT22;67539;48.752;12.922;2024-01-11T06:53:17;-5.60;99.90
78289;DHT22;67539;48.752;12.922;2024-01-11T06:55:45;-5.60;99.90
78289;DHT22;67539;48.752;12.922;2024-01-11T06:58:16;-5.60;99.90
78289;DHT22;67539;48.752;12.922;2024-01-11T07:00:44;-5.60;99.90
78289;DHT22;67539;48.752;12.922;2024-01-11T07:03:14;-5.60;99.90
78289;DHT22;67539;48.752;12.922;2024-01-11T07:05:42;-5.60;99.90
78289;DHT22;67539;48.752;12.922;2024-01-11T07:08:11;-5.60;99.90
78289;DHT22;67539;48.752;12.922;2024-01-11T07:10:40;-5.70;99.90
78289;DHT22;67539;48.752;12.922;2024-01-11T07:13:09;-5.70;99.90
78289;DHT22;67539;48.752;12.922;2024-01-11T07:15:39;-5.80;99.90
78289;DHT22;67539;48.752;12.922;2024-01-11T07:18:07;-5.80;99.90
78289;DHT22;67539;48.752;12.922;2024-01-11T07:20:37;-5.80;99.90
78289;DHT22;67539;48.752;12.922;2024-01-11T07:23:05;-5.80;99.90
78289;DHT22;67539;48.752;12.922;2024-01-11T07:28:03;-5.90;99.90
78289;DHT22;67539;48.752;12.922;2024-01-11T07:30:31;-5.90;99.90
78289;DHT22;67539;48.752;12.922;2024-01-11T07:33:00;-5.90;99.90
78289;DHT22;67539;48.752;12.922;2024-01-11T07:35:29;-5.90;99.90
78289;DHT22;67539;48.752;12.922;2024-01-11T07:45:27;-5.80;99.90
78289;DHT22;67539;48.752;12.922;2024-01-11T07:47:55;-5.80;99.90
78289;DHT22;67539;48.752;12.922;2024-01-11T07:50:24;-5.70;99.90
78289;DHT22;67539;48.752;12.922;2024-01-11T07:52:53;-5.70;99.90
78289;DHT22;67539;48.752;12.922;2024-01-11T07:55:23;-5.70;99.90
78289;DHT22;67539;48.752;12.922;2024-01-11T07:57:53;-5.70;99.90
78289;DHT22;67539;48.752;12.922;2024-01-11T08:00:22;-5.60;99.90
78289;DHT22;67539;48.752;12.922;2024-01-11T08:02:50;-5.60;99.90
78289;DHT22;67539;48.752;12.922;2024-01-11T08:05:21;-5.60;99.90
78289;DHT22;67539;48.752;12.922;2024-01-11T08:07:50;-5.60;99.90
78289;DHT22;67539;48.752;12.922;2024-01-11T08:10:19;-5.60;99.90
78289;DHT22;67539;48.752;12.922;2024-01-11T08:15:17;-5.50;99.90
78289;DHT22;67539;48.752;12.922;2024-01-11T08:17:45;-5.50;99.90
78289;DHT22;67539;48.752;12.922;2024-01-11T08:20:15;-5.40;99.90
78289;DHT22;67539;48.752;12.922;2024-01-11T08:22:43;-5.40;99.90
78289;DHT22;67539;48.752;12.922;2024-01-11T08:25:13;-5.30;99.90
78289;DHT22;67539;48.752;12.922;2024-01-11T08:27:42;-5.30;99.90
78289;DHT22;67539;48.752;12.922;2024-01-11T08:30:12;-5.30;99.90
78289;DHT22;67539;48.752;12.922;2024-01-11T08:32:40;-5.20;99.90
78289;DHT22;67539;48.752;12.922;2024-01-11T08:35:10;-5.10;99.90
78289;DHT22;67539;48.752;12.922;2024-01-11T08:37:39;-5.10;99.90
78289;DHT22;67539;48.752;12.922;2024-01-11T08:40:08;-5.00;99.90
78289;DHT22;67539;48.752;12.922;2024-01-11T08:42:38;-4.90;99.90
78289;DHT22;67539;48.752;12.922;2024-01-11T08:45:10;-4.90;99.90
78289;DHT22;67539;48.752;12.922;2024-01-11T08:47:44;-4.80;99.90
78289;DHT22;67539;48.752;12.922;2024-01-11T08:50:14;-4.70;99.90
78289;DHT22;67539;48.752;12.922;2024-01-11T08:52:45;-4.70;99.90
78289;DHT22;67539;48.752;12.922;2024-01-11T08:55:14;-4.70;99.90
78289;DHT22;67539;48.752;12.922;2024-01-11T08:57:42;-4.60;99.90
78289;DHT22;67539;48.752;12.922;2024-01-11T09:00:13;-4.60;99.90
78289;DHT22;67539;48.752;12.922;2024-01-11T09:02:45;-4.50;99.90
78289;DHT22;67539;48.752;12.922;2024-01-11T09:05:14;-4.40;99.90
78289;DHT22;67539;48.752;12.922;2024-01-11T09:07:43;-4.30;99.90
78289;DHT22;67539;48.752;12.922;2024-01-11T09:10:11;-4.30;99.90
78289;DHT22;67539;48.752;12.922;2024-01-11T09:12:40;-4.20;99.90
78289;DHT22;67539;48.752;12.922;2024-01-11T09:15:09;-4.10;99.90
78289;DHT22;67539;48.752;12.922;2024-01-11T09:17:39;-4.10;99.90
78289;DHT22;67539;48.752;12.922;2024-01-11T09:20:09;-4.00;99.90
78289;DHT22;67539;48.752;12.922;2024-01-11T09:22:41;-4.00;99.90
78289;DHT22;67539;48.752;12.922;2024-01-11T09:25:09;-4.00;99.90
78289;DHT22;67539;48.752;12.922;2024-01-11T09:27:38;-4.00;99.90
78289;DHT22;67539;48.752;12.922;2024-01-11T09:40:10;-3.80;99.90
78289;DHT22;67539;48.752;12.922;2024-01-11T09:42:39;-3.80;99.90
78289;DHT22;67539;48.752;12.922;2024-01-11T09:45:12;-3.70;99.90
78289;DHT22;67539;48.752;12.922;2024-01-11T09:47:43;-3.70;99.90
78289;DHT22;67539;48.752;12.922;2024-01-11T09:50:16;-3.60;99.90
78289;DHT22;67539;48.752;12.922;2024-01-11T09:52:46;-3.60;99.90
78289;DHT22;67539;48.752;12.922;2024-01-11T09:55:16;-3.60;99.90
78289;DHT22;67539;48.752;12.922;2024-01-11T09:57:46;-3.60;99.90
78289;DHT22;67539;48.752;12.922;2024-01-11T10:02:46;-3.50;99.90
78289;DHT22;67539;48.752;12.922;2024-01-11T10:05:17;-3.40;99.90
78289;DHT22;67539;48.752;12.922;2024-01-11T10:07:46;-3.40;99.90
78289;DHT22;67539;48.752;12.922;2024-01-11T10:10:15;-3.30;99.90
78289;DHT22;67539;48.752;12.922;2024-01-11T10:12:43;-3.20;99.90
78289;DHT22;67539;48.752;12.922;2024-01-11T10:15:13;-3.20;99.90
78289;DHT22;67539;48.752;12.922;2024-01-11T10:17:42;-3.10;99.90
78289;DHT22;67539;48.752;12.922;2024-01-11T10:20:12;-3.00;99.90
78289;DHT22;67539;48.752;12.922;2024-01-11T10:22:44;-2.90;99.90
78289;DHT22;67539;48.752;12.922;2024-01-11T10:25:15;-2.80;99.90
78289;DHT22;67539;48.752;12.922;2024-01-11T10:27:45;-2.80;99.90
78289;DHT22;67539;48.752;12.922;2024-01-11T10:30:16;-2.70;99.90
78289;DHT22;67539;48.752;12.922;2024-01-11T13:53:31;-0.30;99.90
78289;DHT22;67539;48.752;12.922;2024-01-11T13:55:59;-0.30;99.90
78289;DHT22;67539;48.752;12.922;2024-01-11T13:58:28;-0.40;99.90
78289;DHT22;67539;48.752;12.922;2024-01-11T14:00:56;-0.50;99.90
78289;DHT22;67539;48.752;12.922;2024-01-11T14:03:26;-0.60;99.90
78289;DHT22;67539;48.752;12.922;2024-01-11T14:05:54;-0.60;99.90
78289;DHT22;67539;48.752;12.922;2024-01-11T14:08:23;-0.50;99.90
78289;DHT22;67539;48.752;12.922;2024-01-11T14:10:51;-0.40;99.90
78289;DHT22;67539;48.752;12.922;2024-01-11T14:13:20;-0.30;99.90
78289;DHT22;67539;48.752;12.922;2024-01-11T14:15:48;-0.20;99.90
78289;DHT22;67539;48.752;12.922;2024-01-11T14:18:17;-0.10;99.90
78289;DHT22;67539;48.752;12.922;2024-01-11T14:20:48;0.00;99.90
78289;DHT22;67539;48.752;12.922;2024-01-11T14:23:16;0.00;99.90
78289;DHT22;67539;48.752;12.922;2024-01-11T14:25:45;0.20;99.90
78289;DHT22;67539;48.752;12.922;2024-01-11T14:28:14;0.20;99.90
78289;DHT22;67539;48.752;12.922;2024-01-11T14:30:42;0.30;99.90
78289;DHT22;67539;48.752;12.922;2024-01-11T14:33:11;0.20;99.90
78289;DHT22;67539;48.752;12.922;2024-01-11T14:35:39;0.20;99.90
78289;DHT22;67539;48.752;12.922;2024-01-11T14:38:09;0.20;99.90
78289;DHT22;67539;48.752;12.922;2024-01-11T14:40:37;0.20;99.90
78289;DHT22;67539;48.752;12.922;2024-01-11T14:43:05;0.20;99.90
78289;DHT22;67539;48.752;12.922;2024-01-11T14:45:35;0.20;99.90
78289;DHT22;67539;48.752;12.922;2024-01-11T14:48:03;0.20;99.90
78289;DHT22;67539;48.752;12.922;2024-01-11T14:50:32;0.20;99.90
78289;DHT22;67539;48.752;12.922;2024-01-11T14:53:00;0.20;99.90
78289;DHT22;67539;48.752;12.922;2024-01-11T14:55:32;0.10;99.90
78289;DHT22;67539;48.752;12.922;2024-01-11T14:58:00;0.10;99.90
78289;DHT22;67539;48.752;12.922;2024-01-11T15:00:28;0.00;99.90
78289;DHT22;67539;48.752;12.922;2024-01-11T15:02:56;0.00;99.90
78289;DHT22;67539;48.752;12.922;2024-01-11T15:05:25;0.00;99.90
78289;DHT22;67539;48.752;12.922;2024-01-11T15:07:53;0.00;99.90
78289;DHT22;67539;48.752;12.922;2024-01-11T15:10:22;-0.10;99.90
78289;DHT22;67539;48.752;12.922;2024-01-11T15:12:51;-0.20;99.90
78289;DHT22;67539;48.752;12.922;2024-01-11T15:15:19;-0.30;99.90
78289;DHT22;67539;48.752;12.922;2024-01-11T15:17:47;-0.30;99.90
78289;DHT22;67539;48.752;12.922;2024-01-11T15:20:16;-0.40;99.90
78289;DHT22;67539;48.752;12.922;2024-01-11T15:22:44;-0.40;99.90
78289;DHT22;67539;48.752;12.922;2024-01-11T15:25:12;-0.40;99.90
78289;DHT22;67539;48.752;12.922;2024-01-11T15:27:40;-0.50;99.90
78289;DHT22;67539;48.752;12.922;2024-01-11T15:30:11;-0.50;99.90
78289;DHT22;67539;48.752;12.922;2024-01-11T15:32:40;-0.60;99.90
78289;DHT22;67539;48.752;12.922;2024-01-11T15:35:08;-0.60;99.90
78289;DHT22;67539;48.752;12.922;2024-01-11T15:37:39;-0.60;99.90
78289;DHT22;67539;48.752;12.922;2024-01-11T15:40:08;-0.70;99.90
78289;DHT22;67539;48.752;12.922;2024-01-11T15:42:36;-0.80;99.90
78289;DHT22;67539;48.752;12.922;2024-01-11T15:45:06;-0.70;99.90
78289;DHT22;67539;48.752;12.922;2024-01-11T15:47:35;-0.80;99.90
78289;DHT22;67539;48.752;12.922;2024-01-11T15:50:05;-0.90;99.90
78289;DHT22;67539;48.752;12.922;2024-01-11T15:52:35;-1.00;99.90
78289;DHT22;67539;48.752;12.922;2024-01-11T15:55:04;-1.00;99.90
78289;DHT22;67539;48.752;12.922;2024-01-11T15:57:36;-1.00;99.90
78289;DHT22;67539;48.752;12.922;2024-01-11T16:00:05;-1.00;99.90
78289;DHT22;67539;48.752;12.922;2024-01-11T16:02:40;-1.10;99.90
78289;DHT22;67539;48.752;12.922;2024-01-11T16:05:10;-1.20;99.90
78289;DHT22;67539;48.752;12.922;2024-01-11T16:07:38;-1.20;99.90
78289;DHT22;67539;48.752;12.922;2024-01-11T16:10:07;-1.30;99.90
78289;DHT22;67539;48.752;12.922;2024-01-11T16:12:36;-1.20;99.90
78289;DHT22;67539;48.752;12.922;2024-01-11T16:15:05;-1.30;99.90
78289;DHT22;67539;48.752;12.922;2024-01-11T16:17:33;-1.30;99.90
78289;DHT22;67539;48.752;12.922;2024-01-11T16:20:04;-1.30;99.90
78289;DHT22;67539;48.752;12.922;2024-01-11T16:22:34;-1.30;99.90
78289;DHT22;67539;48.752;12.922;2024-01-11T16:25:02;-1.40;99.90
78289;DHT22;67539;48.752;12.922;2024-01-11T16:27:31;-1.40;99.90
78289;DHT22;67539;48.752;12.922;2024-01-11T16:29:59;-1.40;99.90
78289;DHT22;67539;48.752;12.922;2024-01-11T16:32:31;-1.50;99.90
78289;DHT22;67539;48.752;12.922;2024-01-11T16:35:00;-1.50;99.90
78289;DHT22;67539;48.752;12.922;2024-01-11T16:37:30;-1.50;99.90
78289;DHT22;67539;48.752;12.922;2024-01-11T16:39:58;-1.60;99.90
78289;DHT22;67539;48.752;12.922;2024-01-11T16:42:26;-1.60;99.90
78289;DHT22;67539;48.752;12.922;2024-01-11T16:44:55;-1.60;99.90
78289;DHT22;67539;48.752;12.922;2024-01-11T16:47:23;-1.60;99.90
78289;DHT22;67539;48.752;12.922;2024-01-11T16:49:51;-1.60;99.90
78289;DHT22;67539;48.752;12.922;2024-01-11T16:52:19;-1.60;99.90
78289;DHT22;67539;48.752;12.922;2024-01-11T16:54:49;-1.60;99.90
78289;DHT22;67539;48.752;12.922;2024-01-11T16:57:18;-1.70;99.90
78289;DHT22;67539;48.752;12.922;2024-01-11T16:59:46;-1.60;99.90
78289;DHT22;67539;48.752;12.922;2024-01-11T17:02:14;-1.70;99.90
78289;DHT22;67539;48.752;12.922;2024-01-11T17:04:43;-1.70;99.90
78289;DHT22;67539;48.752;12.922;2024-01-11T17:07:11;-1.70;99.90
78289;DHT22;67539;48.752;12.922;2024-01-11T17:09:39;-1.70;99.90
78289;DHT22;67539;48.752;12.922;2024-01-11T17:12:08;-1.70;99.90
78289;DHT22;67539;48.752;12.922;2024-01-11T17:14:37;-1.70;99.90
78289;DHT22;67539;48.752;12.922;2024-01-11T17:17:05;-1.70;99.90
78289;DHT22;67539;48.752;12.922;2024-01-11T17:19:34;-1.80;99.90
78289;DHT22;67539;48.752;12.922;2024-01-11T17:22:02;-1.80;99.90
78289;DHT22;67539;48.752;12.922;2024-01-11T17:24:30;-1.80;99.90
78289;DHT22;67539;48.752;12.922;2024-01-11T17:26:59;-1.90;99.90
78289;DHT22;67539;48.752;12.922;2024-01-11T17:29:34;-1.90;99.90
78289;DHT22;67539;48.752;12.922;2024-01-11T17:32:03;-1.90;99.90
78289;DHT22;67539;48.752;12.922;2024-01-11T17:34:31;-1.90;99.90
78289;DHT22;67539;48.752;12.922;2024-01-11T17:36:59;-2.00;99.90
78289;DHT22;67539;48.752;12.922;2024-01-11T17:39:28;-2.00;99.90
78289;DHT22;67539;48.752;12.922;2024-01-11T17:41:56;-2.00;99.90
78289;DHT22;67539;48.752;12.922;2024-01-11T17:44:27;-2.00;99.90
78289;DHT22;67539;48.752;12.922;2024-01-11T17:46:57;-2.00;99.90
78289;DHT22;67539;48.752;12.922;2024-01-11T17:49:25;-2.00;99.90
78289;DHT22;67539;48.752;12.922;2024-01-11T17:51:53;-2.10;99.90
78289;DHT22;67539;48.752;12.922;2024-01-11T17:54:23;-2.10;99.90
78289;DHT22;67539;48.752;12.922;2024-01-11T17:56:52;-2.10;99.90
78289;DHT22;67539;48.752;12.922;2024-01-11T17:59:21;-2.10;99.90
78289;DHT22;67539;48.752;12.922;2024-01-11T18:01:49;-2.10;99.90
78289;DHT22;67539;48.752;12.922;2024-01-11T18:04:19;-2.10;99.90
78289;DHT22;67539;48.752;12.922;2024-01-11T18:06:47;-2.20;99.90
78289;DHT22;67539;48.752;12.922;2024-01-11T18:09:16;-2.20;99.90
